sensor_id;sensor_type;location;lat;lon;timestamp;P1;durP1;ratioP1;P2;durP2;ratioP2
20997;SDS011;10657;51.276;6.390;2022-07-24T00:02:18;9.32;;;6.25;;
20997;SDS011;10657;51.276;6.390;2022-07-24T00:04:49;10.57;;;5.68;;
20997;SDS011;10657;51.276;6.390;2022-07-24T00:07:16;9.02;;;6.10;;
20997;SDS011;10657;51.276;6.390;2022-07-24T00:09:43;12.43;;;6.68;;
20997;SDS011;10657;51.276;6.390;2022-07-24T00:12:11;11.55;;;6.93;;
20997;SDS011;10657;51.276;6.390;2022-07-24T00:14:38;10.48;;;6.47;;
20997;SDS011;10657;51.276;6.390;2022-07-24T00:17:05;16.05;;;7.22;;
20997;SDS011;10657;51.276;6.390;2022-07-24T00:19:32;9.60;;;6.57;;
20997;SDS011;10657;51.276;6.390;2022-07-24T00:21:59;13.90;;;6.88;;
20997;SDS011;10657;51.276;6.390;2022-07-24T00:24:28;10.45;;;6.50;;
20997;SDS011;10657;51.276;6.390;2022-07-24T00:26:56;9.27;;;6.25;;
20997;SDS011;10657;51.276;6.390;2022-07-24T00:29:23;9.45;;;6.28;;
20997;SDS011;10657;51.276;6.390;2022-07-24T00:31:50;12.52;;;6.55;;
20997;SDS011;10657;51.276;6.390;2022-07-24T00:34:17;10.55;;;6.50;;
20997;SDS011;10657;51.276;6.390;2022-07-24T00:36:44;10.13;;;5.82;;
20997;SDS011;10657;51.276;6.390;2022-07-24T00:39:11;11.13;;;6.35;;
20997;SDS011;10657;51.276;6.390;2022-07-24T00:41:38;11.75;;;6.38;;
20997;SDS011;10657;51.276;6.390;2022-07-24T00:44:07;11.05;;;6.40;;
20997;SDS011;10657;51.276;6.390;2022-07-24T00:46:34;10.40;;;6.15;;
20997;SDS011;10657;51.276;6.390;2022-07-24T00:49:06;10.02;;;6.30;;
20997;SDS011;10657;51.276;6.390;2022-07-24T00:51:48;10.20;;;6.03;;
20997;SDS011;10657;51.276;6.390;2022-07-24T00:54:15;12.65;;;6.28;;
20997;SDS011;10657;51.276;6.390;2022-07-24T00:56:43;10.00;;;6.43;;
20997;SDS011;10657;51.276;6.390;2022-07-24T00:59:11;10.43;;;6.40;;
20997;SDS011;10657;51.276;6.390;2022-07-24T01:01:38;9.73;;;6.47;;
20997;SDS011;10657;51.276;6.390;2022-07-24T01:04:05;11.77;;;6.28;;
20997;SDS011;10657;51.276;6.390;2022-07-24T01:06:34;10.80;;;6.72;;
20997;SDS011;10657;51.276;6.390;2022-07-24T01:09:01;13.32;;;7.30;;
20997;SDS011;10657;51.276;6.390;2022-07-24T01:11:29;10.35;;;6.50;;
20997;SDS011;10657;51.276;6.390;2022-07-24T01:13:56;9.90;;;6.47;;
20997;SDS011;10657;51.276;6.390;2022-07-24T01:16:26;11.15;;;6.40;;
20997;SDS011;10657;51.276;6.390;2022-07-24T01:18:53;11.68;;;6.82;;
20997;SDS011;10657;51.276;6.390;2022-07-24T01:21:20;10.43;;;6.75;;
20997;SDS011;10657;51.276;6.390;2022-07-24T01:23:47;10.13;;;6.68;;
20997;SDS011;10657;51.276;6.390;2022-07-24T01:26:15;11.60;;;7.18;;
20997;SDS011;10657;51.276;6.390;2022-07-24T01:28:42;11.30;;;6.82;;
20997;SDS011;10657;51.276;6.390;2022-07-24T01:31:09;11.80;;;6.93;;
20997;SDS011;10657;51.276;6.390;2022-07-24T01:33:36;10.90;;;6.97;;
20997;SDS011;10657;51.276;6.390;2022-07-24T01:36:03;10.57;;;6.88;;
20997;SDS011;10657;51.276;6.390;2022-07-24T01:38:31;11.25;;;6.55;;
20997;SDS011;10657;51.276;6.390;2022-07-24T01:40:58;10.57;;;6.95;;
20997;SDS011;10657;51.276;6.390;2022-07-24T01:43:25;9.98;;;6.88;;
20997;SDS011;10657;51.276;6.390;2022-07-24T01:45:52;11.65;;;7.35;;
20997;SDS011;10657;51.276;6.390;2022-07-24T01:48:19;11.55;;;6.63;;
20997;SDS011;10657;51.276;6.390;2022-07-24T01:50:46;11.77;;;6.60;;
20997;SDS011;10657;51.276;6.390;2022-07-24T01:53:13;12.45;;;6.47;;
20997;SDS011;10657;51.276;6.390;2022-07-24T01:55:41;9.32;;;6.35;;
20997;SDS011;10657;51.276;6.390;2022-07-24T01:58:08;11.57;;;6.80;;
20997;SDS011;10657;51.276;6.390;2022-07-24T02:00:36;10.43;;;6.78;;
20997;SDS011;10657;51.276;6.390;2022-07-24T02:03:03;11.00;;;7.10;;
20997;SDS011;10657;51.276;6.390;2022-07-24T02:05:30;12.75;;;6.45;;
20997;SDS011;10657;51.276;6.390;2022-07-24T02:07:58;11.88;;;6.20;;
20997;SDS011;10657;51.276;6.390;2022-07-24T02:10:25;10.23;;;6.38;;
20997;SDS011;10657;51.276;6.390;2022-07-24T02:12:53;10.90;;;6.90;;
20997;SDS011;10657;51.276;6.390;2022-07-24T02:15:20;15.23;;;7.03;;
20997;SDS011;10657;51.276;6.390;2022-07-24T02:17:49;10.90;;;6.50;;
20997;SDS011;10657;51.276;6.390;2022-07-24T02:20:17;11.25;;;6.80;;
20997;SDS011;10657;51.276;6.390;2022-07-24T02:22:44;12.82;;;6.72;;
20997;SDS011;10657;51.276;6.390;2022-07-24T02:25:12;11.40;;;6.95;;
20997;SDS011;10657;51.276;6.390;2022-07-24T02:27:40;12.32;;;7.53;;
20997;SDS011;10657;51.276;6.390;2022-07-24T02:30:15;10.93;;;7.22;;
20997;SDS011;10657;51.276;6.390;2022-07-24T02:32:42;11.90;;;7.53;;
20997;SDS011;10657;51.276;6.390;2022-07-24T02:35:10;10.68;;;7.32;;
20997;SDS011;10657;51.276;6.390;2022-07-24T02:37:38;13.05;;;7.35;;
20997;SDS011;10657;51.276;6.390;2022-07-24T02:40:06;14.35;;;7.07;;
20997;SDS011;10657;51.276;6.390;2022-07-24T02:42:34;12.80;;;6.82;;
20997;SDS011;10657;51.276;6.390;2022-07-24T02:45:02;11.85;;;7.07;;
20997;SDS011;10657;51.276;6.390;2022-07-24T02:47:29;11.05;;;7.28;;
20997;SDS011;10657;51.276;6.390;2022-07-24T02:49:56;12.63;;;7.20;;
20997;SDS011;10657;51.276;6.390;2022-07-24T02:52:23;13.43;;;8.07;;
20997;SDS011;10657;51.276;6.390;2022-07-24T02:54:50;12.70;;;7.40;;
20997;SDS011;10657;51.276;6.390;2022-07-24T02:57:18;15.95;;;7.53;;
20997;SDS011;10657;51.276;6.390;2022-07-24T02:59:45;13.73;;;7.43;;
20997;SDS011;10657;51.276;6.390;2022-07-24T03:02:18;11.10;;;7.22;;
20997;SDS011;10657;51.276;6.390;2022-07-24T03:04:45;10.73;;;7.60;;
20997;SDS011;10657;51.276;6.390;2022-07-24T03:07:12;10.90;;;7.53;;
20997;SDS011;10657;51.276;6.390;2022-07-24T03:09:39;10.80;;;7.45;;
20997;SDS011;10657;51.276;6.390;2022-07-24T03:12:07;12.43;;;7.97;;
20997;SDS011;10657;51.276;6.390;2022-07-24T03:14:34;16.90;;;8.20;;
20997;SDS011;10657;51.276;6.390;2022-07-24T03:17:01;12.82;;;7.65;;
20997;SDS011;10657;51.276;6.390;2022-07-24T03:19:29;11.20;;;7.38;;
20997;SDS011;10657;51.276;6.390;2022-07-24T03:21:56;13.80;;;7.32;;
20997;SDS011;10657;51.276;6.390;2022-07-24T03:24:23;13.32;;;7.35;;
20997;SDS011;10657;51.276;6.390;2022-07-24T03:26:50;11.48;;;7.68;;
20997;SDS011;10657;51.276;6.390;2022-07-24T03:29:17;15.82;;;7.43;;
20997;SDS011;10657;51.276;6.390;2022-07-24T03:31:44;12.50;;;7.30;;
20997;SDS011;10657;51.276;6.390;2022-07-24T03:34:12;15.02;;;7.68;;
20997;SDS011;10657;51.276;6.390;2022-07-24T03:36:39;10.48;;;7.40;;
20997;SDS011;10657;51.276;6.390;2022-07-24T03:39:06;12.63;;;7.53;;
20997;SDS011;10657;51.276;6.390;2022-07-24T03:41:34;11.68;;;7.38;;
20997;SDS011;10657;51.276;6.390;2022-07-24T03:44:02;14.02;;;7.50;;
20997;SDS011;10657;51.276;6.390;2022-07-24T03:46:29;14.05;;;8.00;;
20997;SDS011;10657;51.276;6.390;2022-07-24T03:48:56;12.85;;;7.47;;
20997;SDS011;10657;51.276;6.390;2022-07-24T03:51:24;18.23;;;7.95;;
20997;SDS011;10657;51.276;6.390;2022-07-24T03:53:52;12.88;;;7.10;;
20997;SDS011;10657;51.276;6.390;2022-07-24T03:56:20;13.27;;;7.60;;
20997;SDS011;10657;51.276;6.390;2022-07-24T03:58:51;14.65;;;8.10;;
20997;SDS011;10657;51.276;6.390;2022-07-24T04:01:18;13.38;;;8.43;;
20997;SDS011;10657;51.276;6.390;2022-07-24T04:03:46;13.93;;;7.63;;
20997;SDS011;10657;51.276;6.390;2022-07-24T04:06:13;14.32;;;8.25;;
20997;SDS011;10657;51.276;6.390;2022-07-24T04:08:40;10.57;;;7.15;;
20997;SDS011;10657;51.276;6.390;2022-07-24T04:11:07;10.75;;;7.35;;
20997;SDS011;10657;51.276;6.390;2022-07-24T04:13:34;18.55;;;7.05;;
20997;SDS011;10657;51.276;6.390;2022-07-24T04:16:08;12.07;;;7.22;;
20997;SDS011;10657;51.276;6.390;2022-07-24T04:18:35;13.65;;;7.63;;
20997;SDS011;10657;51.276;6.390;2022-07-24T04:21:03;13.90;;;7.38;;
20997;SDS011;10657;51.276;6.390;2022-07-24T04:23:30;13.48;;;7.35;;
20997;SDS011;10657;51.276;6.390;2022-07-24T04:25:57;12.90;;;7.30;;
20997;SDS011;10657;51.276;6.390;2022-07-24T04:28:24;15.25;;;7.15;;
20997;SDS011;10657;51.276;6.390;2022-07-24T04:30:51;14.80;;;6.65;;
20997;SDS011;10657;51.276;6.390;2022-07-24T04:33:18;13.20;;;7.07;;
20997;SDS011;10657;51.276;6.390;2022-07-24T04:35:45;11.70;;;6.63;;
20997;SDS011;10657;51.276;6.390;2022-07-24T04:38:12;10.65;;;5.88;;
20997;SDS011;10657;51.276;6.390;2022-07-24T04:40:40;11.95;;;6.97;;
20997;SDS011;10657;51.276;6.390;2022-07-24T04:43:07;11.82;;;7.13;;
20997;SDS011;10657;51.276;6.390;2022-07-24T04:45:36;13.05;;;7.50;;
20997;SDS011;10657;51.276;6.390;2022-07-24T04:48:03;13.73;;;7.38;;
20997;SDS011;10657;51.276;6.390;2022-07-24T04:50:31;11.85;;;6.80;;
20997;SDS011;10657;51.276;6.390;2022-07-24T04:52:58;14.30;;;7.00;;
20997;SDS011;10657;51.276;6.390;2022-07-24T04:55:25;10.85;;;6.63;;
20997;SDS011;10657;51.276;6.390;2022-07-24T04:57:52;14.50;;;7.30;;
20997;SDS011;10657;51.276;6.390;2022-07-24T05:00:19;11.25;;;7.22;;
20997;SDS011;10657;51.276;6.390;2022-07-24T05:02:46;14.32;;;7.70;;
20997;SDS011;10657;51.276;6.390;2022-07-24T05:05:14;15.15;;;7.90;;
20997;SDS011;10657;51.276;6.390;2022-07-24T05:07:41;11.95;;;7.45;;
20997;SDS011;10657;51.276;6.390;2022-07-24T05:10:08;14.50;;;7.63;;
20997;SDS011;10657;51.276;6.390;2022-07-24T05:12:35;17.08;;;7.80;;
20997;SDS011;10657;51.276;6.390;2022-07-24T05:15:03;16.67;;;8.00;;
20997;SDS011;10657;51.276;6.390;2022-07-24T05:17:30;14.25;;;7.65;;
20997;SDS011;10657;51.276;6.390;2022-07-24T05:19:57;16.95;;;8.48;;
20997;SDS011;10657;51.276;6.390;2022-07-24T05:22:25;14.18;;;8.38;;
20997;SDS011;10657;51.276;6.390;2022-07-24T05:24:52;17.70;;;7.47;;
20997;SDS011;10657;51.276;6.390;2022-07-24T05:27:19;25.33;;;8.10;;
20997;SDS011;10657;51.276;6.390;2022-07-24T05:29:47;15.90;;;7.85;;
20997;SDS011;10657;51.276;6.390;2022-07-24T05:32:14;16.25;;;7.40;;
20997;SDS011;10657;51.276;6.390;2022-07-24T05:34:41;11.05;;;7.25;;
20997;SDS011;10657;51.276;6.390;2022-07-24T05:37:08;13.77;;;7.30;;
20997;SDS011;10657;51.276;6.390;2022-07-24T05:39:35;11.07;;;7.07;;
20997;SDS011;10657;51.276;6.390;2022-07-24T05:42:02;16.25;;;7.80;;
20997;SDS011;10657;51.276;6.390;2022-07-24T05:44:29;20.52;;;8.57;;
20997;SDS011;10657;51.276;6.390;2022-07-24T05:46:57;13.90;;;7.88;;
20997;SDS011;10657;51.276;6.390;2022-07-24T05:49:24;13.77;;;7.72;;
20997;SDS011;10657;51.276;6.390;2022-07-24T05:51:52;11.93;;;8.10;;
20997;SDS011;10657;51.276;6.390;2022-07-24T05:54:19;14.43;;;7.75;;
20997;SDS011;10657;51.276;6.390;2022-07-24T05:56:46;14.82;;;8.50;;
20997;SDS011;10657;51.276;6.390;2022-07-24T05:59:14;14.75;;;8.43;;
20997;SDS011;10657;51.276;6.390;2022-07-24T06:01:41;15.02;;;8.55;;
20997;SDS011;10657;51.276;6.390;2022-07-24T06:04:08;13.98;;;8.60;;
20997;SDS011;10657;51.276;6.390;2022-07-24T06:06:35;14.35;;;9.85;;
20997;SDS011;10657;51.276;6.390;2022-07-24T06:09:02;15.20;;;9.75;;
20997;SDS011;10657;51.276;6.390;2022-07-24T06:11:30;16.85;;;9.82;;
20997;SDS011;10657;51.276;6.390;2022-07-24T06:13:58;16.55;;;10.55;;
20997;SDS011;10657;51.276;6.390;2022-07-24T06:16:25;21.65;;;14.30;;
20997;SDS011;10657;51.276;6.390;2022-07-24T06:18:53;22.30;;;13.30;;
20997;SDS011;10657;51.276;6.390;2022-07-24T06:21:20;26.80;;;15.23;;
20997;SDS011;10657;51.276;6.390;2022-07-24T06:23:47;19.65;;;13.48;;
20997;SDS011;10657;51.276;6.390;2022-07-24T06:26:14;19.85;;;12.77;;
20997;SDS011;10657;51.276;6.390;2022-07-24T06:28:41;21.83;;;14.13;;
20997;SDS011;10657;51.276;6.390;2022-07-24T06:31:09;21.00;;;13.10;;
20997;SDS011;10657;51.276;6.390;2022-07-24T06:33:43;24.00;;;14.57;;
20997;SDS011;10657;51.276;6.390;2022-07-24T06:36:10;23.08;;;15.00;;
20997;SDS011;10657;51.276;6.390;2022-07-24T06:38:37;18.50;;;12.10;;
20997;SDS011;10657;51.276;6.390;2022-07-24T06:41:04;19.33;;;14.20;;
20997;SDS011;10657;51.276;6.390;2022-07-24T06:43:31;22.38;;;15.70;;
20997;SDS011;10657;51.276;6.390;2022-07-24T06:45:58;25.50;;;16.38;;
20997;SDS011;10657;51.276;6.390;2022-07-24T06:48:26;24.42;;;16.67;;
20997;SDS011;10657;51.276;6.390;2022-07-24T06:50:53;24.00;;;16.83;;
20997;SDS011;10657;51.276;6.390;2022-07-24T06:53:20;23.10;;;16.58;;
20997;SDS011;10657;51.276;6.390;2022-07-24T06:55:48;23.20;;;14.85;;
20997;SDS011;10657;51.276;6.390;2022-07-24T06:58:18;27.02;;;17.45;;
20997;SDS011;10657;51.276;6.390;2022-07-24T07:00:46;23.40;;;16.38;;
20997;SDS011;10657;51.276;6.390;2022-07-24T07:03:14;26.27;;;16.40;;
20997;SDS011;10657;51.276;6.390;2022-07-24T07:05:41;28.17;;;17.00;;
20997;SDS011;10657;51.276;6.390;2022-07-24T07:08:08;27.58;;;16.02;;
20997;SDS011;10657;51.276;6.390;2022-07-24T07:10:35;24.83;;;16.23;;
20997;SDS011;10657;51.276;6.390;2022-07-24T07:13:02;26.70;;;17.90;;
20997;SDS011;10657;51.276;6.390;2022-07-24T07:15:29;28.65;;;18.08;;
20997;SDS011;10657;51.276;6.390;2022-07-24T07:17:57;29.42;;;18.15;;
20997;SDS011;10657;51.276;6.390;2022-07-24T07:20:24;29.65;;;17.77;;
20997;SDS011;10657;51.276;6.390;2022-07-24T07:22:51;26.20;;;15.40;;
20997;SDS011;10657;51.276;6.390;2022-07-24T07:25:18;27.45;;;16.85;;
20997;SDS011;10657;51.276;6.390;2022-07-24T07:27:45;29.02;;;17.40;;
20997;SDS011;10657;51.276;6.390;2022-07-24T07:30:12;26.20;;;18.20;;
20997;SDS011;10657;51.276;6.390;2022-07-24T07:32:39;26.30;;;16.98;;
20997;SDS011;10657;51.276;6.390;2022-07-24T07:35:07;25.13;;;17.02;;
20997;SDS011;10657;51.276;6.390;2022-07-24T07:37:47;26.83;;;19.27;;
20997;SDS011;10657;51.276;6.390;2022-07-24T07:40:14;25.00;;;18.75;;
20997;SDS011;10657;51.276;6.390;2022-07-24T07:42:41;24.42;;;16.67;;
20997;SDS011;10657;51.276;6.390;2022-07-24T07:45:08;28.23;;;19.77;;
20997;SDS011;10657;51.276;6.390;2022-07-24T07:47:36;28.10;;;18.92;;
20997;SDS011;10657;51.276;6.390;2022-07-24T07:50:03;30.42;;;19.17;;
20997;SDS011;10657;51.276;6.390;2022-07-24T07:52:31;31.58;;;20.00;;
20997;SDS011;10657;51.276;6.390;2022-07-24T07:54:58;26.75;;;17.05;;
20997;SDS011;10657;51.276;6.390;2022-07-24T07:57:25;27.88;;;17.85;;
20997;SDS011;10657;51.276;6.390;2022-07-24T08:00:13;26.25;;;17.17;;
20997;SDS011;10657;51.276;6.390;2022-07-24T08:02:40;33.10;;;20.55;;
20997;SDS011;10657;51.276;6.390;2022-07-24T08:05:07;30.17;;;18.30;;
20997;SDS011;10657;51.276;6.390;2022-07-24T08:07:35;25.90;;;18.60;;
20997;SDS011;10657;51.276;6.390;2022-07-24T08:10:03;26.17;;;18.70;;
20997;SDS011;10657;51.276;6.390;2022-07-24T08:12:36;9.85;;;5.57;;
20997;SDS011;10657;51.276;6.390;2022-07-24T08:15:04;25.00;;;17.85;;
20997;SDS011;10657;51.276;6.390;2022-07-24T08:17:31;29.88;;;17.25;;
20997;SDS011;10657;51.276;6.390;2022-07-24T08:19:59;23.20;;;16.02;;
20997;SDS011;10657;51.276;6.390;2022-07-24T08:22:26;23.17;;;14.93;;
20997;SDS011;10657;51.276;6.390;2022-07-24T08:24:53;21.27;;;13.98;;
20997;SDS011;10657;51.276;6.390;2022-07-24T08:27:20;23.08;;;14.70;;
20997;SDS011;10657;51.276;6.390;2022-07-24T08:29:47;13.68;;;8.85;;
20997;SDS011;10657;51.276;6.390;2022-07-24T08:32:14;23.60;;;13.48;;
20997;SDS011;10657;51.276;6.390;2022-07-24T08:34:41;26.90;;;16.88;;
20997;SDS011;10657;51.276;6.390;2022-07-24T08:37:08;24.23;;;16.80;;
20997;SDS011;10657;51.276;6.390;2022-07-24T08:39:35;22.02;;;15.30;;
20997;SDS011;10657;51.276;6.390;2022-07-24T08:42:03;23.58;;;15.02;;
20997;SDS011;10657;51.276;6.390;2022-07-24T08:44:30;23.33;;;14.27;;
20997;SDS011;10657;51.276;6.390;2022-07-24T08:46:57;17.38;;;10.05;;
20997;SDS011;10657;51.276;6.390;2022-07-24T08:49:25;23.27;;;12.27;;
20997;SDS011;10657;51.276;6.390;2022-07-24T08:51:53;19.35;;;12.23;;
20997;SDS011;10657;51.276;6.390;2022-07-24T08:54:21;15.57;;;9.82;;
20997;SDS011;10657;51.276;6.390;2022-07-24T08:56:48;9.57;;;4.90;;
20997;SDS011;10657;51.276;6.390;2022-07-24T08:59:16;21.08;;;10.20;;
20997;SDS011;10657;51.276;6.390;2022-07-24T09:01:51;18.23;;;11.70;;
20997;SDS011;10657;51.276;6.390;2022-07-24T09:07:18;17.38;;;10.77;;
20997;SDS011;10657;51.276;6.390;2022-07-24T09:09:58;19.67;;;10.95;;
20997;SDS011;10657;51.276;6.390;2022-07-24T09:12:29;14.85;;;9.40;;
20997;SDS011;10657;51.276;6.390;2022-07-24T09:14:58;18.92;;;9.75;;
20997;SDS011;10657;51.276;6.390;2022-07-24T09:17:26;17.73;;;10.80;;
20997;SDS011;10657;51.276;6.390;2022-07-24T09:19:57;15.02;;;11.23;;
20997;SDS011;10657;51.276;6.390;2022-07-24T09:25:30;18.80;;;10.25;;
20997;SDS011;10657;51.276;6.390;2022-07-24T09:30:24;15.05;;;9.60;;
20997;SDS011;10657;51.276;6.390;2022-07-24T09:32:55;14.57;;;9.20;;
20997;SDS011;10657;51.276;6.390;2022-07-24T09:35:23;15.50;;;9.88;;
20997;SDS011;10657;51.276;6.390;2022-07-24T09:37:54;13.77;;;8.80;;
20997;SDS011;10657;51.276;6.390;2022-07-24T09:40:24;19.13;;;9.35;;
20997;SDS011;10657;51.276;6.390;2022-07-24T09:42:56;16.58;;;9.60;;
20997;SDS011;10657;51.276;6.390;2022-07-24T09:45:23;17.67;;;10.18;;
20997;SDS011;10657;51.276;6.390;2022-07-24T09:47:51;13.73;;;9.07;;
20997;SDS011;10657;51.276;6.390;2022-07-24T09:50:22;14.57;;;9.77;;
20997;SDS011;10657;51.276;6.390;2022-07-24T09:52:56;15.90;;;10.48;;
20997;SDS011;10657;51.276;6.390;2022-07-24T09:55:24;12.93;;;9.68;;
20997;SDS011;10657;51.276;6.390;2022-07-24T09:57:51;15.95;;;11.18;;
20997;SDS011;10657;51.276;6.390;2022-07-24T10:00:18;13.98;;;8.80;;
20997;SDS011;10657;51.276;6.390;2022-07-24T10:02:46;15.50;;;8.88;;
20997;SDS011;10657;51.276;6.390;2022-07-24T10:05:13;15.98;;;9.40;;
20997;SDS011;10657;51.276;6.390;2022-07-24T10:07:47;14.95;;;10.80;;
20997;SDS011;10657;51.276;6.390;2022-07-24T10:10:15;15.60;;;9.77;;
20997;SDS011;10657;51.276;6.390;2022-07-24T10:12:44;18.50;;;10.82;;
20997;SDS011;10657;51.276;6.390;2022-07-24T10:15:12;17.10;;;10.32;;
20997;SDS011;10657;51.276;6.390;2022-07-24T10:20:39;17.75;;;11.32;;
20997;SDS011;10657;51.276;6.390;2022-07-24T10:23:16;17.08;;;9.82;;
20997;SDS011;10657;51.276;6.390;2022-07-24T10:26:00;16.17;;;9.27;;
20997;SDS011;10657;51.276;6.390;2022-07-24T10:28:38;14.55;;;8.75;;
20997;SDS011;10657;51.276;6.390;2022-07-24T10:31:06;18.23;;;9.77;;
20997;SDS011;10657;51.276;6.390;2022-07-24T10:33:35;13.82;;;8.68;;
20997;SDS011;10657;51.276;6.390;2022-07-24T10:36:04;19.15;;;9.80;;
20997;SDS011;10657;51.276;6.390;2022-07-24T10:38:33;20.63;;;10.18;;
20997;SDS011;10657;51.276;6.390;2022-07-24T10:41:05;17.42;;;9.30;;
20997;SDS011;10657;51.276;6.390;2022-07-24T10:43:36;14.13;;;9.55;;
20997;SDS011;10657;51.276;6.390;2022-07-24T10:48:31;13.57;;;8.45;;
20997;SDS011;10657;51.276;6.390;2022-07-24T10:56:37;13.38;;;7.55;;
20997;SDS011;10657;51.276;6.390;2022-07-24T10:58:57;13.25;;;8.93;;
20997;SDS011;10657;51.276;6.390;2022-07-24T11:01:38;11.38;;;8.13;;
20997;SDS011;10657;51.276;6.390;2022-07-24T11:09:31;10.70;;;6.63;;
20997;SDS011;10657;51.276;6.390;2022-07-24T11:12:25;9.45;;;5.05;;
20997;SDS011;10657;51.276;6.390;2022-07-24T11:14:53;13.30;;;8.02;;
20997;SDS011;10657;51.276;6.390;2022-07-24T11:17:44;12.40;;;7.85;;
20997;SDS011;10657;51.276;6.390;2022-07-24T11:20:17;13.98;;;9.23;;
20997;SDS011;10657;51.276;6.390;2022-07-24T11:25:14;12.05;;;7.65;;
20997;SDS011;10657;51.276;6.390;2022-07-24T11:27:43;11.40;;;6.45;;
20997;SDS011;10657;51.276;6.390;2022-07-24T11:30:11;10.98;;;6.43;;
20997;SDS011;10657;51.276;6.390;2022-07-24T11:32:39;10.55;;;6.95;;
20997;SDS011;10657;51.276;6.390;2022-07-24T11:35:07;16.90;;;7.32;;
20997;SDS011;10657;51.276;6.390;2022-07-24T11:37:35;14.10;;;8.73;;
20997;SDS011;10657;51.276;6.390;2022-07-24T11:40:03;17.83;;;7.55;;
20997;SDS011;10657;51.276;6.390;2022-07-24T11:42:32;13.68;;;7.90;;
20997;SDS011;10657;51.276;6.390;2022-07-24T11:44:59;16.83;;;9.55;;
20997;SDS011;10657;51.276;6.390;2022-07-24T11:47:27;12.35;;;7.40;;
20997;SDS011;10657;51.276;6.390;2022-07-24T11:49:55;12.45;;;6.32;;
20997;SDS011;10657;51.276;6.390;2022-07-24T11:52:28;13.00;;;8.52;;
20997;SDS011;10657;51.276;6.390;2022-07-24T11:55:05;13.70;;;7.22;;
20997;SDS011;10657;51.276;6.390;2022-07-24T11:57:44;10.70;;;6.47;;
20997;SDS011;10657;51.276;6.390;2022-07-24T12:00:32;11.23;;;6.80;;
20997;SDS011;10657;51.276;6.390;2022-07-24T12:03:00;13.20;;;7.25;;
20997;SDS011;10657;51.276;6.390;2022-07-24T12:05:32;10.68;;;6.15;;
20997;SDS011;10657;51.276;6.390;2022-07-24T12:08:01;10.82;;;5.53;;
20997;SDS011;10657;51.276;6.390;2022-07-24T12:10:28;11.18;;;5.97;;
20997;SDS011;10657;51.276;6.390;2022-07-24T12:12:56;10.02;;;6.05;;
20997;SDS011;10657;51.276;6.390;2022-07-24T12:15:24;11.45;;;6.57;;
20997;SDS011;10657;51.276;6.390;2022-07-24T12:22:59;9.82;;;5.50;;
20997;SDS011;10657;51.276;6.390;2022-07-24T12:25:26;9.55;;;5.22;;
20997;SDS011;10657;51.276;6.390;2022-07-24T12:30:32;10.95;;;5.55;;
20997;SDS011;10657;51.276;6.390;2022-07-24T12:33:01;8.10;;;4.95;;
20997;SDS011;10657;51.276;6.390;2022-07-24T12:35:29;10.57;;;6.03;;
20997;SDS011;10657;51.276;6.390;2022-07-24T12:37:57;9.57;;;5.75;;
20997;SDS011;10657;51.276;6.390;2022-07-24T12:45:24;17.55;;;6.10;;
20997;SDS011;10657;51.276;6.390;2022-07-24T12:50:38;10.43;;;5.50;;
20997;SDS011;10657;51.276;6.390;2022-07-24T12:53:22;12.80;;;4.85;;
20997;SDS011;10657;51.276;6.390;2022-07-24T13:01:18;7.68;;;4.20;;
20997;SDS011;10657;51.276;6.390;2022-07-24T13:04:04;9.73;;;6.32;;
20997;SDS011;10657;51.276;6.390;2022-07-24T13:06:39;9.25;;;5.78;;
20997;SDS011;10657;51.276;6.390;2022-07-24T13:09:07;10.77;;;6.22;;
20997;SDS011;10657;51.276;6.390;2022-07-24T13:11:35;9.13;;;5.05;;
20997;SDS011;10657;51.276;6.390;2022-07-24T13:14:03;8.65;;;5.50;;
20997;SDS011;10657;51.276;6.390;2022-07-24T13:16:34;12.75;;;6.38;;
20997;SDS011;10657;51.276;6.390;2022-07-24T13:19:02;9.70;;;6.20;;
20997;SDS011;10657;51.276;6.390;2022-07-24T13:21:30;9.90;;;6.32;;
20997;SDS011;10657;51.276;6.390;2022-07-24T13:23:57;9.05;;;6.10;;
20997;SDS011;10657;51.276;6.390;2022-07-24T13:26:25;10.35;;;6.38;;
20997;SDS011;10657;51.276;6.390;2022-07-24T13:28:52;12.77;;;6.40;;
20997;SDS011;10657;51.276;6.390;2022-07-24T13:31:19;9.38;;;5.75;;
20997;SDS011;10657;51.276;6.390;2022-07-24T13:33:47;10.30;;;5.70;;
20997;SDS011;10657;51.276;6.390;2022-07-24T13:36:17;9.10;;;5.85;;
20997;SDS011;10657;51.276;6.390;2022-07-24T13:38:48;13.15;;;6.30;;
20997;SDS011;10657;51.276;6.390;2022-07-24T13:41:15;10.93;;;5.72;;
20997;SDS011;10657;51.276;6.390;2022-07-24T13:43:48;9.75;;;5.22;;
20997;SDS011;10657;51.276;6.390;2022-07-24T13:46:15;12.52;;;5.82;;
20997;SDS011;10657;51.276;6.390;2022-07-24T13:48:46;11.43;;;6.30;;
20997;SDS011;10657;51.276;6.390;2022-07-24T13:51:22;11.77;;;6.00;;
20997;SDS011;10657;51.276;6.390;2022-07-24T13:53:50;9.52;;;5.50;;
20997;SDS011;10657;51.276;6.390;2022-07-24T13:56:17;8.98;;;5.18;;
20997;SDS011;10657;51.276;6.390;2022-07-24T13:58:44;10.50;;;6.22;;
20997;SDS011;10657;51.276;6.390;2022-07-24T14:01:11;9.02;;;5.82;;
20997;SDS011;10657;51.276;6.390;2022-07-24T14:03:43;8.80;;;5.63;;
20997;SDS011;10657;51.276;6.390;2022-07-24T14:06:30;10.80;;;5.53;;
20997;SDS011;10657;51.276;6.390;2022-07-24T14:08:58;10.05;;;5.93;;
20997;SDS011;10657;51.276;6.390;2022-07-24T14:11:25;11.68;;;6.15;;
20997;SDS011;10657;51.276;6.390;2022-07-24T14:13:52;10.25;;;6.50;;
20997;SDS011;10657;51.276;6.390;2022-07-24T14:16:20;9.52;;;6.18;;
20997;SDS011;10657;51.276;6.390;2022-07-24T14:18:47;10.55;;;5.65;;
20997;SDS011;10657;51.276;6.390;2022-07-24T14:21:15;8.68;;;5.70;;
20997;SDS011;10657;51.276;6.390;2022-07-24T14:23:42;12.32;;;5.93;;
20997;SDS011;10657;51.276;6.390;2022-07-24T14:26:09;11.38;;;6.15;;
20997;SDS011;10657;51.276;6.390;2022-07-24T14:28:36;8.95;;;5.82;;
20997;SDS011;10657;51.276;6.390;2022-07-24T14:31:03;10.75;;;5.38;;
20997;SDS011;10657;51.276;6.390;2022-07-24T14:33:31;8.57;;;5.00;;
20997;SDS011;10657;51.276;6.390;2022-07-24T14:36:00;14.57;;;5.45;;
20997;SDS011;10657;51.276;6.390;2022-07-24T14:38:27;8.60;;;5.07;;
20997;SDS011;10657;51.276;6.390;2022-07-24T14:40:54;10.82;;;4.90;;
20997;SDS011;10657;51.276;6.390;2022-07-24T14:43:21;11.38;;;6.22;;
20997;SDS011;10657;51.276;6.390;2022-07-24T14:45:48;9.02;;;5.82;;
20997;SDS011;10657;51.276;6.390;2022-07-24T14:48:15;10.10;;;6.32;;
20997;SDS011;10657;51.276;6.390;2022-07-24T14:50:42;10.88;;;5.72;;
20997;SDS011;10657;51.276;6.390;2022-07-24T14:53:09;10.93;;;6.63;;
20997;SDS011;10657;51.276;6.390;2022-07-24T14:55:36;12.70;;;6.00;;
20997;SDS011;10657;51.276;6.390;2022-07-24T14:58:03;10.73;;;5.97;;
20997;SDS011;10657;51.276;6.390;2022-07-24T15:00:31;8.90;;;5.75;;
20997;SDS011;10657;51.276;6.390;2022-07-24T15:02:58;8.23;;;5.10;;
20997;SDS011;10657;51.276;6.390;2022-07-24T15:05:25;10.93;;;5.95;;
20997;SDS011;10657;51.276;6.390;2022-07-24T15:07:52;6.45;;;3.90;;
20997;SDS011;10657;51.276;6.390;2022-07-24T15:10:19;10.20;;;5.25;;
20997;SDS011;10657;51.276;6.390;2022-07-24T15:12:46;12.20;;;6.07;;
20997;SDS011;10657;51.276;6.390;2022-07-24T15:15:13;31.30;;;16.48;;
20997;SDS011;10657;51.276;6.390;2022-07-24T15:17:43;13.10;;;6.90;;
20997;SDS011;10657;51.276;6.390;2022-07-24T15:20:10;21.70;;;16.25;;
20997;SDS011;10657;51.276;6.390;2022-07-24T15:22:38;10.95;;;6.25;;
20997;SDS011;10657;51.276;6.390;2022-07-24T15:25:05;44.25;;;34.40;;
20997;SDS011;10657;51.276;6.390;2022-07-24T15:27:32;11.10;;;6.10;;
20997;SDS011;10657;51.276;6.390;2022-07-24T15:29:59;12.30;;;7.10;;